sensor_id;sensor_type;location;lat;lon;timestamp;pressure;altitude;pressure_sealevel;temperature;humidity
47811;BME280;33575;52.600;7.318;2023-04-16T00:00:12;101802.45;;;8.21;100.00
47811;BME280;33575;52.600;7.318;2023-04-16T00:02:43;101802.22;;;8.22;100.00
47811;BME280;33575;52.600;7.318;2023-04-16T00:05:13;101805.64;;;8.09;100.00
47811;BME280;33575;52.600;7.318;2023-04-16T00:07:44;101804.88;;;8.03;100.00
47811;BME280;33575;52.600;7.318;2023-04-16T00:10:15;101812.32;;;7.93;99.53
47811;BME280;33575;52.600;7.318;2023-04-16T00:12:45;101812.25;;;7.93;100.00
47811;BME280;33575;52.600;7.318;2023-04-16T00:15:15;101810.53;;;7.91;100.00
47811;BME280;33575;52.600;7.318;2023-04-16T00:17:46;101809.49;;;7.87;100.00
47811;BME280;33575;52.600;7.318;2023-04-16T00:20:17;101815.10;;;7.80;100.00
47811;BME280;33575;52.600;7.318;2023-04-16T00:22:47;101818.11;;;7.86;100.00
47811;BME280;33575;52.600;7.318;2023-04-16T00:25:17;101820.60;;;7.78;100.00
47811;BME280;33575;52.600;7.318;2023-04-16T00:27:47;101823.18;;;7.81;100.00
47811;BME280;33575;52.600;7.318;2023-04-16T00:30:18;101827.41;;;7.95;100.00
47811;BME280;33575;52.600;7.318;2023-04-16T00:32:48;101826.58;;;7.92;100.00
47811;BME280;33575;52.600;7.318;2023-04-16T00:35:19;101826.63;;;7.90;100.00
47811;BME280;33575;52.600;7.318;2023-04-16T00:37:49;101829.22;;;7.94;100.00
47811;BME280;33575;52.600;7.318;2023-04-16T00:40:20;101830.08;;;8.00;100.00
47811;BME280;33575;52.600;7.318;2023-04-16T00:42:50;101834.78;;;7.74;100.00
47811;BME280;33575;52.600;7.318;2023-04-16T00:45:20;101834.25;;;7.96;100.00
47811;BME280;33575;52.600;7.318;2023-04-16T00:47:51;101835.15;;;8.05;100.00
47811;BME280;33575;52.600;7.318;2023-04-16T00:50:22;101836.33;;;8.07;100.00
47811;BME280;33575;52.600;7.318;2023-04-16T00:52:53;101836.39;;;8.05;100.00
47811;BME280;33575;52.600;7.318;2023-04-16T00:55:23;101834.51;;;8.04;100.00
47811;BME280;33575;52.600;7.318;2023-04-16T00:57:53;101836.58;;;7.94;100.00
47811;BME280;33575;52.600;7.318;2023-04-16T01:00:24;101836.76;;;7.83;100.00
47811;BME280;33575;52.600;7.318;2023-04-16T01:02:55;101840.29;;;8.06;100.00
47811;BME280;33575;52.600;7.318;2023-04-16T01:05:25;101839.81;;;8.00;100.00
47811;BME280;33575;52.600;7.318;2023-04-16T01:07:57;101845.39;;;7.72;100.00
47811;BME280;33575;52.600;7.318;2023-04-16T01:10:25;101839.57;;;8.00;100.00
47811;BME280;33575;52.600;7.318;2023-04-16T01:12:55;101840.69;;;8.08;100.00
47811;BME280;33575;52.600;7.318;2023-04-16T01:15:25;101844.50;;;8.01;100.00
47811;BME280;33575;52.600;7.318;2023-04-16T01:17:56;101847.43;;;7.94;100.00
47811;BME280;33575;52.600;7.318;2023-04-16T01:20:26;101845.45;;;7.92;100.00
47811;BME280;33575;52.600;7.318;2023-04-16T01:22:57;101847.76;;;7.98;100.00
47811;BME280;33575;52.600;7.318;2023-04-16T01:25:27;101848.38;;;8.02;100.00
47811;BME280;33575;52.600;7.318;2023-04-16T01:27:58;101845.75;;;8.04;100.00
47811;BME280;33575;52.600;7.318;2023-04-16T01:30:28;101848.14;;;8.08;100.00
47811;BME280;33575;52.600;7.318;2023-04-16T01:32:59;101849.60;;;8.05;100.00
47811;BME280;33575;52.600;7.318;2023-04-16T01:35:29;101854.61;;;7.99;100.00
47811;BME280;33575;52.600;7.318;2023-04-16T01:37:59;101856.38;;;8.03;100.00
47811;BME280;33575;52.600;7.318;2023-04-16T01:40:30;101856.78;;;8.12;100.00
47811;BME280;33575;52.600;7.318;2023-04-16T01:43:00;101859.29;;;8.13;100.00
47811;BME280;33575;52.600;7.318;2023-04-16T01:45:30;101861.60;;;8.15;100.00
47811;BME280;33575;52.600;7.318;2023-04-16T01:48:01;101863.53;;;8.11;100.00
47811;BME280;33575;52.600;7.318;2023-04-16T01:50:30;101863.14;;;7.75;100.00
47811;BME280;33575;52.600;7.318;2023-04-16T01:53:01;101859.34;;;7.92;100.00
47811;BME280;33575;52.600;7.318;2023-04-16T01:55:32;101860.36;;;7.69;100.00
47811;BME280;33575;52.600;7.318;2023-04-16T01:58:01;101863.01;;;7.77;100.00
47811;BME280;33575;52.600;7.318;2023-04-16T02:00:32;101865.56;;;7.88;100.00
47811;BME280;33575;52.600;7.318;2023-04-16T02:03:02;101867.81;;;7.78;100.00
47811;BME280;33575;52.600;7.318;2023-04-16T02:05:32;101872.08;;;7.70;100.00
47811;BME280;33575;52.600;7.318;2023-04-16T02:08:03;101871.97;;;7.80;100.00
47811;BME280;33575;52.600;7.318;2023-04-16T02:10:34;101872.90;;;7.73;100.00
47811;BME280;33575;52.600;7.318;2023-04-16T02:13:04;101871.64;;;7.46;100.00
47811;BME280;33575;52.600;7.318;2023-04-16T02:15:35;101869.20;;;7.55;100.00
47811;BME280;33575;52.600;7.318;2023-04-16T02:18:05;101875.47;;;7.20;100.00
47811;BME280;33575;52.600;7.318;2023-04-16T02:20:39;101869.06;;;7.25;100.00
47811;BME280;33575;52.600;7.318;2023-04-16T02:23:06;101871.90;;;7.20;100.00
47811;BME280;33575;52.600;7.318;2023-04-16T02:25:38;101870.97;;;7.13;100.00
47811;BME280;33575;52.600;7.318;2023-04-16T02:28:07;101871.36;;;7.01;100.00
47811;BME280;33575;52.600;7.318;2023-04-16T02:30:39;101868.34;;;6.99;100.00
47811;BME280;33575;52.600;7.318;2023-04-16T02:33:10;101866.80;;;7.00;100.00
47811;BME280;33575;52.600;7.318;2023-04-16T02:35:39;101868.87;;;7.07;100.00
47811;BME280;33575;52.600;7.318;2023-04-16T02:38:09;101866.02;;;7.26;100.00
47811;BME280;33575;52.600;7.318;2023-04-16T02:40:39;101871.83;;;7.11;100.00
47811;BME280;33575;52.600;7.318;2023-04-16T02:43:10;101874.24;;;7.06;100.00
47811;BME280;33575;52.600;7.318;2023-04-16T02:45:40;101873.13;;;7.24;100.00
47811;BME280;33575;52.600;7.318;2023-04-16T02:48:10;101877.81;;;7.21;100.00
47811;BME280;33575;52.600;7.318;2023-04-16T02:50:41;101872.86;;;7.18;100.00
47811;BME280;33575;52.600;7.318;2023-04-16T02:53:11;101878.11;;;7.07;100.00
47811;BME280;33575;52.600;7.318;2023-04-16T02:55:48;101876.75;;;7.13;100.00
47811;BME280;33575;52.600;7.318;2023-04-16T02:58:12;101876.37;;;7.23;100.00
47811;BME280;33575;52.600;7.318;2023-04-16T03:00:43;101878.53;;;7.18;100.00
47811;BME280;33575;52.600;7.318;2023-04-16T03:03:13;101882.65;;;7.03;100.00
47811;BME280;33575;52.600;7.318;2023-04-16T03:05:44;101887.92;;;6.99;100.00
47811;BME280;33575;52.600;7.318;2023-04-16T03:08:14;101890.91;;;6.97;100.00
47811;BME280;33575;52.600;7.318;2023-04-16T03:10:45;101891.35;;;6.94;100.00
47811;BME280;33575;52.600;7.318;2023-04-16T03:13:15;101890.05;;;6.83;100.00
47811;BME280;33575;52.600;7.318;2023-04-16T03:15:47;101891.99;;;6.68;100.00
47811;BME280;33575;52.600;7.318;2023-04-16T03:18:17;101893.73;;;6.66;100.00
47811;BME280;33575;52.600;7.318;2023-04-16T03:20:50;101896.84;;;6.52;100.00
47811;BME280;33575;52.600;7.318;2023-04-16T03:23:18;101900.55;;;6.57;100.00
47811;BME280;33575;52.600;7.318;2023-04-16T03:25:48;101900.18;;;6.72;100.00
47811;BME280;33575;52.600;7.318;2023-04-16T03:28:18;101906.17;;;6.69;100.00
47811;BME280;33575;52.600;7.318;2023-04-16T03:30:50;101909.36;;;6.55;100.00
47811;BME280;33575;52.600;7.318;2023-04-16T03:33:19;101908.13;;;6.59;100.00
47811;BME280;33575;52.600;7.318;2023-04-16T03:35:54;101909.87;;;6.40;100.00
47811;BME280;33575;52.600;7.318;2023-04-16T03:38:20;101908.23;;;6.49;100.00
47811;BME280;33575;52.600;7.318;2023-04-16T03:40:50;101911.38;;;6.40;100.00
47811;BME280;33575;52.600;7.318;2023-04-16T03:43:21;101912.12;;;6.31;100.00
47811;BME280;33575;52.600;7.318;2023-04-16T03:45:51;101916.61;;;6.28;100.00
47811;BME280;33575;52.600;7.318;2023-04-16T03:48:22;101916.69;;;6.38;100.00
47811;BME280;33575;52.600;7.318;2023-04-16T03:50:52;101915.01;;;6.44;100.00
47811;BME280;33575;52.600;7.318;2023-04-16T03:53:22;101918.38;;;6.44;100.00
47811;BME280;33575;52.600;7.318;2023-04-16T03:55:52;101922.29;;;6.06;100.00
47811;BME280;33575;52.600;7.318;2023-04-16T03:58:23;101927.57;;;6.31;100.00
47811;BME280;33575;52.600;7.318;2023-04-16T04:00:53;101926.23;;;6.48;100.00
47811;BME280;33575;52.600;7.318;2023-04-16T04:03:24;101924.28;;;6.52;100.00
47811;BME280;33575;52.600;7.318;2023-04-16T04:05:54;101918.97;;;6.61;100.00
47811;BME280;33575;52.600;7.318;2023-04-16T04:08:24;101917.08;;;6.46;100.00
47811;BME280;33575;52.600;7.318;2023-04-16T04:10:55;101917.44;;;6.56;100.00
47811;BME280;33575;52.600;7.318;2023-04-16T04:13:25;101917.57;;;6.55;100.00
47811;BME280;33575;52.600;7.318;2023-04-16T04:15:55;101924.27;;;6.50;100.00
47811;BME280;33575;52.600;7.318;2023-04-16T04:18:26;101927.97;;;6.43;100.00
47811;BME280;33575;52.600;7.318;2023-04-16T04:20:57;101930.39;;;6.46;100.00
47811;BME280;33575;52.600;7.318;2023-04-16T04:23:28;101933.72;;;6.54;100.00
47811;BME280;33575;52.600;7.318;2023-04-16T04:25:58;101934.23;;;6.45;100.00
47811;BME280;33575;52.600;7.318;2023-04-16T04:28:29;101931.25;;;6.50;100.00
47811;BME280;33575;52.600;7.318;2023-04-16T04:31:00;101939.98;;;6.27;100.00
47811;BME280;33575;52.600;7.318;2023-04-16T04:33:30;101941.60;;;6.21;100.00
47811;BME280;33575;52.600;7.318;2023-04-16T04:36:00;101944.85;;;6.26;100.00
47811;BME280;33575;52.600;7.318;2023-04-16T04:38:31;101946.55;;;6.26;100.00
47811;BME280;33575;52.600;7.318;2023-04-16T04:41:01;101946.97;;;6.35;100.00
47811;BME280;33575;52.600;7.318;2023-04-16T04:43:32;101948.82;;;6.35;100.00
47811;BME280;33575;52.600;7.318;2023-04-16T04:46:02;101952.25;;;6.24;100.00
47811;BME280;33575;52.600;7.318;2023-04-16T04:48:33;101956.28;;;6.26;100.00
47811;BME280;33575;52.600;7.318;2023-04-16T04:51:05;101954.06;;;6.43;100.00
47811;BME280;33575;52.600;7.318;2023-04-16T04:53:33;101961.07;;;6.35;100.00
47811;BME280;33575;52.600;7.318;2023-04-16T04:56:09;101961.78;;;6.54;100.00
47811;BME280;33575;52.600;7.318;2023-04-16T04:58:34;101963.42;;;6.55;100.00
47811;BME280;33575;52.600;7.318;2023-04-16T05:01:05;101961.26;;;6.65;100.00
47811;BME280;33575;52.600;7.318;2023-04-16T05:03:36;101963.82;;;6.63;100.00
47811;BME280;33575;52.600;7.318;2023-04-16T05:06:06;101960.14;;;6.66;100.00
47811;BME280;33575;52.600;7.318;2023-04-16T05:08:37;101959.48;;;6.68;100.00
47811;BME280;33575;52.600;7.318;2023-04-16T05:11:07;101955.39;;;6.72;100.00
47811;BME280;33575;52.600;7.318;2023-04-16T05:13:38;101955.89;;;6.78;100.00
47811;BME280;33575;52.600;7.318;2023-04-16T05:16:08;101959.18;;;6.82;100.00
47811;BME280;33575;52.600;7.318;2023-04-16T05:18:38;101962.76;;;6.88;100.00
47811;BME280;33575;52.600;7.318;2023-04-16T05:21:09;101965.67;;;6.97;100.00
47811;BME280;33575;52.600;7.318;2023-04-16T05:23:39;101969.56;;;7.05;100.00
47811;BME280;33575;52.600;7.318;2023-04-16T05:26:10;101972.09;;;7.17;100.00
47811;BME280;33575;52.600;7.318;2023-04-16T05:28:40;101973.75;;;7.24;100.00
47811;BME280;33575;52.600;7.318;2023-04-16T05:31:11;101977.91;;;7.30;100.00
47811;BME280;33575;52.600;7.318;2023-04-16T05:33:41;101983.51;;;7.35;100.00
47811;BME280;33575;52.600;7.318;2023-04-16T05:36:12;101983.13;;;7.39;100.00
47811;BME280;33575;52.600;7.318;2023-04-16T05:38:42;101984.62;;;7.42;100.00
47811;BME280;33575;52.600;7.318;2023-04-16T05:41:12;101985.48;;;7.46;100.00
47811;BME280;33575;52.600;7.318;2023-04-16T05:43:43;101984.57;;;7.48;99.54
47811;BME280;33575;52.600;7.318;2023-04-16T05:46:14;101991.19;;;7.50;99.69
47811;BME280;33575;52.600;7.318;2023-04-16T05:48:44;101994.93;;;7.50;99.66
47811;BME280;33575;52.600;7.318;2023-04-16T05:51:15;101997.73;;;7.48;99.31
47811;BME280;33575;52.600;7.318;2023-04-16T05:53:45;101998.22;;;7.48;99.65
47811;BME280;33575;52.600;7.318;2023-04-16T05:56:15;101998.32;;;7.48;99.32
47811;BME280;33575;52.600;7.318;2023-04-16T05:58:46;102000.06;;;7.50;100.00
47811;BME280;33575;52.600;7.318;2023-04-16T06:01:17;101997.57;;;7.35;100.00
47811;BME280;33575;52.600;7.318;2023-04-16T06:03:47;101997.65;;;7.55;100.00
47811;BME280;33575;52.600;7.318;2023-04-16T06:06:17;101999.47;;;7.58;100.00
47811;BME280;33575;52.600;7.318;2023-04-16T06:08:48;102002.00;;;7.50;100.00
47811;BME280;33575;52.600;7.318;2023-04-16T06:11:18;102007.06;;;7.51;100.00
47811;BME280;33575;52.600;7.318;2023-04-16T06:13:48;102008.51;;;7.53;100.00
47811;BME280;33575;52.600;7.318;2023-04-16T06:16:18;102011.54;;;7.53;100.00
47811;BME280;33575;52.600;7.318;2023-04-16T06:18:48;102011.28;;;7.53;100.00
47811;BME280;33575;52.600;7.318;2023-04-16T06:21:19;102011.64;;;7.59;100.00
47811;BME280;33575;52.600;7.318;2023-04-16T06:23:50;102011.51;;;7.56;99.94
47811;BME280;33575;52.600;7.318;2023-04-16T06:26:20;102013.83;;;7.58;100.00
47811;BME280;33575;52.600;7.318;2023-04-16T06:28:51;102017.99;;;7.61;100.00
47811;BME280;33575;52.600;7.318;2023-04-16T06:31:22;102024.02;;;7.64;100.00
47811;BME280;33575;52.600;7.318;2023-04-16T06:33:52;102022.81;;;7.58;100.00
47811;BME280;33575;52.600;7.318;2023-04-16T06:36:22;102025.19;;;7.59;100.00
47811;BME280;33575;52.600;7.318;2023-04-16T06:38:53;102027.51;;;7.56;100.00
47811;BME280;33575;52.600;7.318;2023-04-16T06:41:23;102031.18;;;7.66;100.00
47811;BME280;33575;52.600;7.318;2023-04-16T06:43:54;102034.10;;;7.74;100.00
47811;BME280;33575;52.600;7.318;2023-04-16T06:46:25;102040.21;;;7.81;100.00
47811;BME280;33575;52.600;7.318;2023-04-16T06:48:55;102040.76;;;7.79;100.00
47811;BME280;33575;52.600;7.318;2023-04-16T06:51:25;102042.51;;;7.83;100.00
47811;BME280;33575;52.600;7.318;2023-04-16T06:53:56;102045.52;;;7.88;100.00
47811;BME280;33575;52.600;7.318;2023-04-16T06:56:26;102042.15;;;7.94;100.00
47811;BME280;33575;52.600;7.318;2023-04-16T06:58:57;102045.08;;;7.96;100.00
47811;BME280;33575;52.600;7.318;2023-04-16T07:01:27;102048.43;;;7.95;100.00
47811;BME280;33575;52.600;7.318;2023-04-16T07:03:57;102049.90;;;7.90;100.00
47811;BME280;33575;52.600;7.318;2023-04-16T07:06:27;102052.94;;;7.97;100.00
47811;BME280;33575;52.600;7.318;2023-04-16T07:08:58;102056.90;;;7.97;100.00
47811;BME280;33575;52.600;7.318;2023-04-16T07:11:29;102059.96;;;8.03;100.00
47811;BME280;33575;52.600;7.318;2023-04-16T07:13:59;102056.39;;;8.10;100.00
47811;BME280;33575;52.600;7.318;2023-04-16T07:16:29;102059.14;;;7.99;100.00
47811;BME280;33575;52.600;7.318;2023-04-16T07:19:00;102058.37;;;8.04;100.00
47811;BME280;33575;52.600;7.318;2023-04-16T07:21:30;102059.14;;;8.04;100.00
47811;BME280;33575;52.600;7.318;2023-04-16T07:24:01;102062.61;;;7.87;100.00
47811;BME280;33575;52.600;7.318;2023-04-16T07:26:31;102065.06;;;7.70;100.00
47811;BME280;33575;52.600;7.318;2023-04-16T07:29:01;102065.91;;;7.84;100.00
47811;BME280;33575;52.600;7.318;2023-04-16T07:31:32;102074.39;;;7.83;100.00
47811;BME280;33575;52.600;7.318;2023-04-16T07:34:03;102069.19;;;7.84;100.00
47811;BME280;33575;52.600;7.318;2023-04-16T07:36:33;102070.91;;;7.98;100.00
47811;BME280;33575;52.600;7.318;2023-04-16T07:39:04;102069.49;;;8.21;100.00
47811;BME280;33575;52.600;7.318;2023-04-16T07:41:35;102070.07;;;8.21;100.00
47811;BME280;33575;52.600;7.318;2023-04-16T07:44:05;102070.62;;;8.24;100.00
47811;BME280;33575;52.600;7.318;2023-04-16T07:46:40;102074.13;;;8.34;100.00
47811;BME280;33575;52.600;7.318;2023-04-16T07:49:06;102075.54;;;8.28;100.00
47811;BME280;33575;52.600;7.318;2023-04-16T07:51:36;102074.79;;;8.22;100.00
47811;BME280;33575;52.600;7.318;2023-04-16T07:54:07;102074.19;;;8.37;100.00
47811;BME280;33575;52.600;7.318;2023-04-16T07:56:38;102074.85;;;8.25;100.00
47811;BME280;33575;52.600;7.318;2023-04-16T07:59:13;102076.48;;;8.54;99.75
47811;BME280;33575;52.600;7.318;2023-04-16T08:01:39;102078.22;;;8.58;99.73
47811;BME280;33575;52.600;7.318;2023-04-16T08:04:10;102081.73;;;8.73;99.91
47811;BME280;33575;52.600;7.318;2023-04-16T08:06:40;102084.69;;;8.67;98.79
47811;BME280;33575;52.600;7.318;2023-04-16T08:09:11;102091.83;;;8.76;99.09
47811;BME280;33575;52.600;7.318;2023-04-16T08:11:41;102093.42;;;8.88;99.25
47811;BME280;33575;52.600;7.318;2023-04-16T08:14:12;102096.01;;;8.90;99.42
47811;BME280;33575;52.600;7.318;2023-04-16T08:16:42;102098.47;;;8.96;98.65
47811;BME280;33575;52.600;7.318;2023-04-16T08:19:13;102103.65;;;9.01;98.40
47811;BME280;33575;52.600;7.318;2023-04-16T08:21:43;102102.67;;;9.14;98.38
47811;BME280;33575;52.600;7.318;2023-04-16T08:24:13;102108.24;;;9.06;97.80
47811;BME280;33575;52.600;7.318;2023-04-16T08:26:44;102110.73;;;9.03;97.77
47811;BME280;33575;52.600;7.318;2023-04-16T08:29:14;102113.91;;;9.00;97.61
47811;BME280;33575;52.600;7.318;2023-04-16T08:31:44;102118.63;;;9.08;98.26
47811;BME280;33575;52.600;7.318;2023-04-16T08:34:15;102116.48;;;9.31;98.14
47811;BME280;33575;52.600;7.318;2023-04-16T08:36:45;102120.83;;;9.47;97.34
47811;BME280;33575;52.600;7.318;2023-04-16T08:39:16;102121.21;;;9.51;97.15
47811;BME280;33575;52.600;7.318;2023-04-16T08:41:46;102125.43;;;9.58;96.91
47811;BME280;33575;52.600;7.318;2023-04-16T08:44:20;102123.12;;;9.66;96.60
47811;BME280;33575;52.600;7.318;2023-04-16T08:46:47;102123.24;;;9.59;96.87
47811;BME280;33575;52.600;7.318;2023-04-16T08:49:17;102130.33;;;9.76;95.82
47811;BME280;33575;52.600;7.318;2023-04-16T08:51:50;102135.49;;;9.48;96.32
47811;BME280;33575;52.600;7.318;2023-04-16T08:54:30;102132.78;;;9.55;95.51
47811;BME280;33575;52.600;7.318;2023-04-16T08:56:50;102133.48;;;9.61;95.65
47811;BME280;33575;52.600;7.318;2023-04-16T08:59:19;102132.73;;;9.83;95.32
47811;BME280;33575;52.600;7.318;2023-04-16T09:01:49;102134.55;;;9.83;95.59
47811;BME280;33575;52.600;7.318;2023-04-16T09:04:21;102135.33;;;9.99;95.17
47811;BME280;33575;52.600;7.318;2023-04-16T09:06:51;102137.86;;;10.01;95.31
47811;BME280;33575;52.600;7.318;2023-04-16T09:09:20;102138.20;;;10.10;94.80
47811;BME280;33575;52.600;7.318;2023-04-16T09:11:51;102135.79;;;10.13;94.96
47811;BME280;33575;52.600;7.318;2023-04-16T09:14:21;102139.82;;;10.10;93.92
47811;BME280;33575;52.600;7.318;2023-04-16T09:16:52;102143.29;;;10.05;94.29
47811;BME280;33575;52.600;7.318;2023-04-16T09:19:22;102142.51;;;9.95;93.96
47811;BME280;33575;52.600;7.318;2023-04-16T09:21:52;102142.36;;;10.02;93.73
47811;BME280;33575;52.600;7.318;2023-04-16T09:24:24;102144.43;;;10.14;93.39
47811;BME280;33575;52.600;7.318;2023-04-16T09:26:53;102139.68;;;10.25;93.24
47811;BME280;33575;52.600;7.318;2023-04-16T09:29:32;102145.47;;;10.16;93.10
47811;BME280;33575;52.600;7.318;2023-04-16T09:32:01;102141.21;;;10.36;92.85
47811;BME280;33575;52.600;7.318;2023-04-16T09:34:25;102144.52;;;10.26;92.74
47811;BME280;33575;52.600;7.318;2023-04-16T09:36:55;102145.87;;;10.51;92.13
47811;BME280;33575;52.600;7.318;2023-04-16T09:39:26;102149.52;;;10.50;91.47
47811;BME280;33575;52.600;7.318;2023-04-16T09:41:56;102150.45;;;10.43;92.32
47811;BME280;33575;52.600;7.318;2023-04-16T09:44:33;102152.47;;;10.52;92.65
47811;BME280;33575;52.600;7.318;2023-04-16T09:47:04;102147.33;;;10.39;92.19
47811;BME280;33575;52.600;7.318;2023-04-16T09:49:33;102151.60;;;10.42;91.94
47811;BME280;33575;52.600;7.318;2023-04-16T09:51:59;102155.79;;;10.38;91.87
47811;BME280;33575;52.600;7.318;2023-04-16T09:54:29;102157.60;;;10.62;91.85
47811;BME280;33575;52.600;7.318;2023-04-16T09:57:00;102154.61;;;10.67;91.84
47811;BME280;33575;52.600;7.318;2023-04-16T09:59:30;102160.54;;;10.74;91.06
47811;BME280;33575;52.600;7.318;2023-04-16T10:02:07;102159.02;;;10.79;90.52
47811;BME280;33575;52.600;7.318;2023-04-16T10:04:44;102161.70;;;10.98;90.96
47811;BME280;33575;52.600;7.318;2023-04-16T10:07:02;102163.64;;;10.95;89.05
47811;BME280;33575;52.600;7.318;2023-04-16T10:09:36;102161.57;;;10.95;89.35
47811;BME280;33575;52.600;7.318;2023-04-16T10:12:03;102161.87;;;10.99;90.05
47811;BME280;33575;52.600;7.318;2023-04-16T10:14:32;102164.09;;;10.98;89.92
47811;BME280;33575;52.600;7.318;2023-04-16T10:17:03;102170.68;;;10.95;89.22
47811;BME280;33575;52.600;7.318;2023-04-16T10:19:34;102169.31;;;10.90;89.26
47811;BME280;33575;52.600;7.318;2023-04-16T10:22:04;102164.61;;;10.99;89.63
47811;BME280;33575;52.600;7.318;2023-04-16T10:24:35;102165.68;;;11.05;88.94
47811;BME280;33575;52.600;7.318;2023-04-16T10:27:05;102168.16;;;11.30;89.57
47811;BME280;33575;52.600;7.318;2023-04-16T10:29:36;102171.08;;;11.32;89.74
47811;BME280;33575;52.600;7.318;2023-04-16T10:32:06;102176.54;;;11.46;89.33
47811;BME280;33575;52.600;7.318;2023-04-16T10:34:36;102177.08;;;11.57;88.64
47811;BME280;33575;52.600;7.318;2023-04-16T10:37:07;102179.45;;;11.36;87.12
47811;BME280;33575;52.600;7.318;2023-04-16T10:39:37;102174.79;;;11.53;87.76
47811;BME280;33575;52.600;7.318;2023-04-16T10:42:09;102177.54;;;11.62;87.39
47811;BME280;33575;52.600;7.318;2023-04-16T10:44:38;102173.33;;;11.59;87.67
47811;BME280;33575;52.600;7.318;2023-04-16T10:47:09;102172.97;;;11.62;87.74
47811;BME280;33575;52.600;7.318;2023-04-16T10:49:39;102171.34;;;11.55;87.55
47811;BME280;33575;52.600;7.318;2023-04-16T10:52:10;102168.05;;;11.65;87.71
47811;BME280;33575;52.600;7.318;2023-04-16T10:54:39;102173.89;;;11.58;87.78
47811;BME280;33575;52.600;7.318;2023-04-16T10:57:14;102173.38;;;11.74;87.40
47811;BME280;33575;52.600;7.318;2023-04-16T10:59:42;102166.65;;;11.81;87.65
47811;BME280;33575;52.600;7.318;2023-04-16T11:02:13;102166.88;;;11.54;87.14
47811;BME280;33575;52.600;7.318;2023-04-16T11:04:43;102164.53;;;11.64;88.70
47811;BME280;33575;52.600;7.318;2023-04-16T11:07:16;102162.88;;;11.57;88.09
47811;BME280;33575;52.600;7.318;2023-04-16T11:09:44;102162.10;;;11.68;88.53
47811;BME280;33575;52.600;7.318;2023-04-16T11:12:13;102162.53;;;11.79;88.25
47811;BME280;33575;52.600;7.318;2023-04-16T11:14:43;102163.09;;;11.82;87.96
47811;BME280;33575;52.600;7.318;2023-04-16T11:17:12;102161.71;;;11.92;88.23
47811;BME280;33575;52.600;7.318;2023-04-16T11:19:43;102165.20;;;11.78;86.61
47811;BME280;33575;52.600;7.318;2023-04-16T11:22:16;102161.41;;;11.91;87.16
47811;BME280;33575;52.600;7.318;2023-04-16T11:24:44;102159.57;;;11.91;87.04
47811;BME280;33575;52.600;7.318;2023-04-16T11:27:14;102157.28;;;11.98;87.80
47811;BME280;33575;52.600;7.318;2023-04-16T11:29:57;102157.10;;;12.08;87.19
47811;BME280;33575;52.600;7.318;2023-04-16T11:32:20;102158.48;;;12.17;88.16
47811;BME280;33575;52.600;7.318;2023-04-16T11:34:47;102154.46;;;12.33;87.18
47811;BME280;33575;52.600;7.318;2023-04-16T11:37:19;102159.40;;;12.19;87.42
47811;BME280;33575;52.600;7.318;2023-04-16T11:39:49;102157.42;;;12.16;86.83
47811;BME280;33575;52.600;7.318;2023-04-16T11:42:19;102159.20;;;12.22;87.39
47811;BME280;33575;52.600;7.318;2023-04-16T11:44:51;102163.52;;;12.08;87.81
47811;BME280;33575;52.600;7.318;2023-04-16T11:47:18;102155.07;;;12.23;87.31
47811;BME280;33575;52.600;7.318;2023-04-16T11:49:50;102156.97;;;12.24;86.18
47811;BME280;33575;52.600;7.318;2023-04-16T11:52:24;102156.89;;;12.31;86.00
47811;BME280;33575;52.600;7.318;2023-04-16T11:54:49;102164.97;;;12.24;86.43
47811;BME280;33575;52.600;7.318;2023-04-16T11:57:25;102162.24;;;12.28;85.08
47811;BME280;33575;52.600;7.318;2023-04-16T11:59:54;102157.68;;;12.32;85.78
47811;BME280;33575;52.600;7.318;2023-04-16T12:04:50;102162.23;;;12.56;85.77
47811;BME280;33575;52.600;7.318;2023-04-16T12:07:20;102163.88;;;12.50;84.45
47811;BME280;33575;52.600;7.318;2023-04-16T12:12:26;102168.27;;;12.47;85.35
47811;BME280;33575;52.600;7.318;2023-04-16T12:14:52;102166.91;;;12.37;85.29
47811;BME280;33575;52.600;7.318;2023-04-16T12:17:23;102167.89;;;12.19;85.86
47811;BME280;33575;52.600;7.318;2023-04-16T12:19:56;102171.48;;;12.00;86.20
47811;BME280;33575;52.600;7.318;2023-04-16T12:22:28;102172.29;;;12.14;86.38
47811;BME280;33575;52.600;7.318;2023-04-16T12:24:57;102172.04;;;12.02;86.93
47811;BME280;33575;52.600;7.318;2023-04-16T12:27:24;102171.26;;;12.03;85.85
47811;BME280;33575;52.600;7.318;2023-04-16T12:30:03;102170.92;;;12.00;85.94
47811;BME280;33575;52.600;7.318;2023-04-16T12:32:24;102170.56;;;12.13;87.95
47811;BME280;33575;52.600;7.318;2023-04-16T12:34:55;102174.41;;;12.07;85.29
47811;BME280;33575;52.600;7.318;2023-04-16T12:37:25;102173.81;;;11.88;86.02
47811;BME280;33575;52.600;7.318;2023-04-16T12:39:57;102169.60;;;12.05;85.64
47811;BME280;33575;52.600;7.318;2023-04-16T12:42:26;102169.04;;;12.03;85.01
47811;BME280;33575;52.600;7.318;2023-04-16T12:44:57;102168.22;;;12.09;84.60
47811;BME280;33575;52.600;7.318;2023-04-16T12:47:28;102169.43;;;12.21;85.38
47811;BME280;33575;52.600;7.318;2023-04-16T12:49:59;102166.69;;;12.24;85.42
47811;BME280;33575;52.600;7.318;2023-04-16T12:52:29;102165.14;;;12.36;84.71
47811;BME280;33575;52.600;7.318;2023-04-16T12:55:00;102168.56;;;12.41;84.49
47811;BME280;33575;52.600;7.318;2023-04-16T12:57:31;102166.40;;;12.43;84.77
47811;BME280;33575;52.600;7.318;2023-04-16T13:00:01;102162.66;;;12.54;84.61
47811;BME280;33575;52.600;7.318;2023-04-16T13:02:31;102165.32;;;12.58;85.21
47811;BME280;33575;52.600;7.318;2023-04-16T13:05:01;102164.23;;;12.62;84.69
47811;BME280;33575;52.600;7.318;2023-04-16T13:07:32;102156.35;;;12.51;84.36
47811;BME280;33575;52.600;7.318;2023-04-16T13:10:02;102160.06;;;12.31;83.95